Elliot Chaparral Reserve, California Weather observations

Data are for 10 minute period ending at time listed.
 Day   Time   Solar   Ave.   Ave.  Ave.  Vector  Max.   Baro.   Total    
  of    of     Rad.   Air    Rel.  Wind   Wind   Wind  Press.  Precip.   
Year   Day            Temp.  Hum.  Speed  Dir.   Gust                    
2016   (PST)  Kw/m2    F      %     mph   deg.    mph    mb.     in.     
-------------------------------------------------------------------------
 242   14:30   0.67   80.9    47   11.7   290    17.4   983.1    0.00 
 242   14:40   0.65   81.7    46   11.4   302    15.5   982.9    0.00 
 242   14:50   0.62   81.3    47    9.9   298    15.7   982.9    0.00 
 242   15:00   0.59   80.4    50   12.0   286    15.8   982.8    0.00 
 242   15:10   0.56   79.6    52   10.2   296    14.9   982.7    0.00 
 242   15:20   0.53   80.9    50    9.0   302    12.6   982.6    0.00 
 242   15:30   0.49   81.0    48    8.5   309    13.9   982.6    0.00 
 242   15:40   0.46   80.1    49    8.7   298    13.4   982.5    0.00 
 242   15:50   0.43   80.8    48    7.8   313    10.5   982.6    0.00 
 242   16:00   0.40   81.5    47    6.4   316     9.4   982.6    0.00 
 242   16:10   0.36   81.1    46    7.6   323    11.0   982.5    0.00 
 242   16:20   0.33   81.8    45    6.4   316    12.2   982.5    0.00 
 242   16:30   0.29   81.2    45    7.6   320    10.9   982.3    0.00 
 242   16:40   0.26   80.7    45    6.5   306     9.1   982.3    0.00 
 242   16:50   0.22   81.1    46    6.8   292    10.2   982.3    0.00 
 242   17:00   0.19   80.9    45    6.6   313     8.9   982.2    0.00 
 242   17:10   0.16   80.5    47    7.7   292    11.2   982.2    0.00 
 242   17:20   0.12   79.2    50    7.5   278     9.9   982.2    0.00 
 242   17:30   0.10   78.5    52    7.7   290    10.7   982.3    0.00 
 242   17:40   0.07   77.0    55    8.0   290    10.6   982.4    0.00 
 242   17:50   0.05   76.0    57    7.0   302     9.9   982.5    0.00 
 242   18:00   0.02   75.2    58    5.7   294     7.6   982.7    0.00 
 242   18:10   0.01   73.9    60    6.0   302     7.7   982.8    0.00 
 242   18:20   0.00   72.5    63    7.1   303     9.4   982.8    0.00 
 242   18:30   0.00   71.7    65    5.7   303     8.2   982.9    0.00 
 242   18:40   0.00   71.3    66    3.8   291     6.9   983.0    0.00 
 242   18:50   0.00   70.3    69    5.7   293     7.5   983.0    0.00 
 242   19:00   0.00   69.9    70    4.3   300     5.9   983.1    0.00 
 242   19:10   0.00   69.5    72    5.4   304     7.5   983.3    0.00 
 242   19:20   0.00   69.2    74    5.7   318     7.4   983.4    0.00 
 242   19:30   0.00   68.9    75    6.0   320     7.5   983.4    0.00 
 242   19:40   0.00   68.6    76    3.7   307     5.6   983.6    0.00 
 242   19:50   0.00   68.1    77    4.6   326     6.9   983.7    0.00 
 242   20:00   0.00   68.0    78    2.7   342     3.7   983.6    0.00 
 242   20:10   0.00   67.8    78    2.8   318     4.2   983.6    0.00 
 242   20:20   0.00   67.7    78    1.1   306     3.6   983.7    0.00 
 242   20:30   0.00   67.6    77    0.8   264     1.8   983.7    0.00 
 242   20:40   0.00   67.7    78    1.2   289     1.6   983.7    0.00 
 242   20:50   0.00   67.7    78    1.2   256     2.0   983.7    0.00 
 242   21:00   0.00   67.5    79    1.2   242     1.8   983.8    0.00 
 242   21:10   0.00   67.2    78    0.1   242     0.9   983.9    0.00 
 242   21:20   0.00   67.3    79    1.1   198     1.7   983.8    0.00 
 242   21:30   0.00   67.1    79    1.4   204     1.9   983.8    0.00 
 242   21:40   0.00   66.9    79    2.1   195     2.9   983.7    0.00 
 242   21:50   0.00   66.5    80    3.1   207     4.2   983.7    0.00 
 242   22:00   0.00   66.2    82    3.3   209     4.0   983.8    0.00 
 242   22:10   0.00   66.2    83    3.2   216     3.5   983.7    0.00 
 242   22:20   0.00   65.9    83    1.7   197     3.1   983.6    0.00 
 242   22:30   0.00   66.1    85    3.0   209     3.7   983.5    0.00 
 242   22:40   0.00   66.0    86    3.8   204     4.3   983.4    0.00 
 242   22:50   0.00   65.9    86    3.9   191     4.7   983.5    0.00 
 242   23:00   0.00   65.8    86    4.5   199     5.1   983.5    0.00 
 242   23:10   0.00   65.5    87    4.1   193     4.6   983.5    0.00 
 242   23:20   0.00   65.0    87    4.7   187     5.1   983.6    0.00 
 242   23:30   0.00   64.8    87    4.1   178     5.0   983.5    0.00 
 242   23:40   0.00   65.0    87    4.7   197     5.8   983.5    0.00 
 242   23:50   0.00   64.6    88    5.4   212     6.4   983.6    0.00 
 243    0:00   0.00   64.6    88    5.6   206     6.8   983.6    0.00 
 243    0:10   0.00   64.9    88    4.8   202     6.4   983.5    0.00 
 243    0:20   0.00   65.1    89    3.9   188     5.3   983.5    0.00 
 243    0:30   0.00   65.2    90    5.2   189     7.5   983.4    0.00 
 243    0:40   0.00   65.2    90    6.4   193     7.9   983.4    0.00 
 243    0:50   0.00   65.2    91    6.7   186     8.8   983.5    0.00 
 243    1:00   0.00   65.2    91    6.0   187     7.8   983.6    0.00 
 243    1:10   0.00   65.1    91    6.8   168     8.7   983.6    0.00 
 243    1:20   0.00   65.0    91    5.5   173     7.2   983.6    0.00 
 243    1:30   0.00   65.0    91    6.1   176     8.0   983.5    0.00 
 243    1:40   0.00   65.0    91    6.0   179     8.0   983.6    0.00 
 243    1:50   0.00   65.0    91    6.0   172     7.6   983.5    0.00 
 243    2:00   0.00   64.8    91    5.8   167     7.4   983.3    0.00 
 243    2:10   0.00   64.8    91    4.7   147     6.4   983.3    0.00 
 243    2:20   0.00   64.7    91    5.6   134     7.4   983.2    0.00 
 243    2:30   0.00   64.5    91    5.0   150     6.6   983.1    0.00 
 243    2:40   0.00   64.4    91    4.9   166     6.6   983.1    0.00 
 243    2:50   0.00   64.4    91    3.8   147     5.1   983.0    0.00 
 243    3:00   0.00   64.4    91    3.9   192     5.7   983.0    0.00 
 243    3:10   0.00   64.3    91    3.5   200     5.8   983.0    0.00 
 243    3:20   0.00   64.1    91    5.2   212     6.6   983.0    0.00 
 243    3:30   0.00   63.8    92    3.8   228     5.9   983.0    0.00 
 243    3:40   0.00   63.7    92    2.5   187     3.7   983.0    0.00 
 243    3:50   0.00   63.5    92    3.9   212     5.0   983.0    0.00 
 243    4:00   0.00   63.3    92    1.7   215     4.7   983.0    0.00 
 243    4:10   0.00   63.3    92    0.9    10     2.3   983.0    0.00 
 243    4:20   0.00   63.2    92    1.6    14     2.6   983.0    0.00 
 243    4:30   0.00   63.1    92    0.7    44     2.2   983.0    0.00 
 243    4:40   0.00   63.1    92    0.1   226     0.9   983.0    0.00 
 243    4:50   0.00   63.2    92    0.3    87     1.5   983.0    0.00 
 243    5:00   0.00   63.2    92    1.1    67     2.4   983.0    0.00 
 243    5:10   0.00   63.3    92    1.7    36     3.5   983.0    0.00 
 243    5:20   0.00   63.4    92    3.2    41     4.8   982.9    0.00 
 243    5:30   0.00   63.5    92    3.2    70     5.2   982.9    0.00 
 243    5:40   0.01   63.4    92    3.5    62     5.3   982.9    0.00 
 243    5:50   0.01   63.3    92    4.0    58     5.8   982.9    0.00 
 243    6:00   0.03   63.3    92    4.3    76     6.3   983.0    0.00 
 243    6:10   0.03   63.4    92    3.1    32     4.9   983.0    0.00 
 243    6:20   0.06   63.5    92    3.4    43     6.4   983.0    0.00 
 243    6:30   0.09   63.5    92    4.4    68     6.9   982.9    0.00 
 243    6:40   0.14   64.5    91    3.3    67     5.4   982.9    0.00 
 243    6:50   0.18   65.7    88    3.2    69     4.7   982.9    0.00 
 243    7:00   0.27   67.9    82    1.9    64     3.7   983.0    0.00 
 243    7:10   0.19   69.3    76    2.0   358     3.5   983.1    0.00 
 243    7:20   0.27   69.2    75    3.3     2     5.3   983.1    0.00 
 243    7:30   0.36   70.0    73    3.2   332     5.6   983.2    0.00 
 243    7:40   0.39   71.4    70    2.8   324     4.1   983.2    0.00 
 243    7:50   0.42   72.9    67    1.8   297     3.9   983.1    0.00 
 243    8:00   0.45   73.4    65    1.8   291     3.7   983.1    0.00 
 243    8:10   0.49   74.8    62    2.6   265     4.7   983.1    0.00 
 243    8:20   0.52   76.1    59    2.5   239     5.2   983.2    0.00 
 243    8:30   0.55   78.1    55    3.0   225     5.3   983.2    0.00 
 243    8:40   0.58   78.2    55    4.5   253     8.3   983.2    0.00 
 243    8:50   0.61   78.3    54    3.4   260     6.1   983.2    0.00 
 243    9:00   0.64   78.8    54    3.6   257     7.0   983.2    0.00 
 243    9:10   0.66   79.6    52    4.6   253     7.7   983.2    0.00 
 243    9:20   0.69   80.2    50    4.1   251     9.1   983.1    0.00 
 243    9:30   0.71   80.9    49    5.1   277     7.7   983.0    0.00 
 243    9:40   0.73   82.4    46    5.5   264     9.1   982.9    0.00 
 243    9:50   0.76   83.2    45    5.8   256     9.9   982.9    0.00 
 243   10:00   0.77   84.1    45    5.9   271     9.8   982.8    0.00 
 243   10:10   0.79   85.3    44    5.2   271     8.3   982.7    0.00 
 243   10:20   0.81   85.5    44    7.9   250    11.5   982.5    0.00 
 243   10:30   0.82   85.6    45    7.5   265    12.0   982.4    0.00 
 243   10:40   0.83   85.7    46    9.0   268    11.9   982.4    0.00 
 243   10:50   0.85   85.2    46    8.3   263    11.5   982.3    0.00 
 243   11:00   0.86   84.2    48    7.8   270    13.0   982.2    0.00 
 243   11:10   0.86   84.1    48    8.8   279    13.5   982.1    0.00 
 243   11:20   0.87   83.9    48    8.6   269    14.0   982.1    0.00 
 243   11:30   0.87   84.7    47    8.5   268    13.9   982.1    0.00 
 243   11:40   0.87   85.4    46    9.4   276    13.2   982.0    0.00 
 243   11:50   0.84   84.8    46    8.8   278    13.4   981.9    0.00 
 243   12:00   0.87   85.0    46    9.7   271    15.7   981.8    0.00 
 243   12:10   0.87   85.8    44   10.2   252    15.3   981.8    0.00 
 243   12:20   0.87   86.4    43   10.7   240    17.8   981.7    0.00 
 243   12:30   0.86   85.8    44   11.3   246    17.2   981.6    0.00 
 243   12:40   0.85   86.1    44   11.1   247    16.7   981.6    0.00 
 243   12:50   0.85   85.7    44   12.1   241    17.5   981.5    0.00 
 243   13:00   0.84   86.1    44   11.4   255    16.8   981.5    0.00 
 243   13:10   0.82   85.7    44   11.5   268    16.5   981.3    0.00 
 243   13:20   0.81   84.5    47   11.2   284    16.5   981.3    0.00 
 243   13:30   0.79   84.3    47   10.5   282    17.1   981.3    0.00 
 243   13:40   0.77   84.4    47   10.5   274    16.0   981.1    0.00 
 243   13:50   0.75   84.6    46    9.9   268    13.2   981.1    0.00 
 243   14:00   0.73   84.5    46   11.3   248    15.5   981.1    0.00 
 243   14:10   0.71   84.0    47   11.5   248    17.0   981.0    0.00 
 243   14:20   0.57   84.1    46   10.1   245    14.4   981.0    0.00 

Return to Elliot Chaparral Reserve graphs page.


Western Regional Climate Center,wrcc@dri.edu